
Distance (Route):
Temperature : -38.5°C
Humidity : 27.0%
Pressure : 0hPa| Receiver | Frames | First received | Last received |
|---|---|---|---|
| LZ4TU-5 | 87 | 2026-08-30 23:41:51 | 2026-08-31 00:54:48 |
| Receiver | Date | Latitude | Longitude | Direction | Speed | Altitude | Climb | Temperature | Humidity | Pressure | Voltage | Killtimer | Uptime | BKT | XDATA |
|---|---|---|---|---|---|---|---|---|---|---|---|---|---|---|---|
| LZ4TU-5 | 2026-08-31 00:54:48 | 43.18412 | 20.33954 | 138° | 38km/h | 9892m | -19.5m/s | -38.5°C | 27.0% | 0hPa | 0V | 00:00:00 | 00:00:00 | 00:00:00 | |
| LZ4TU-5 | 2026-08-31 00:54:43 | 43.18454 | 20.33910 | 139° | 40km/h | 9989m | -19.5m/s | -39.0°C | 26.9% | 0hPa | 0V | 00:00:00 | 00:00:00 | 00:00:00 | |
| LZ4TU-5 | 2026-08-31 00:52:49 | 43.19210 | 20.32751 | 115° | 64km/h | 12447m | -22.9m/s | -56.3°C | 16.6% | 0hPa | 0V | 00:00:00 | 00:00:00 | 00:00:00 | |
| LZ4TU-5 | 2026-08-31 00:50:19 | 43.19835 | 20.30500 | 93° | 26km/h | 16531m | -31.6m/s | -59.7°C | 0.0% | 0hPa | 0V | 00:00:00 | 00:00:00 | 00:00:00 | |
| LZ4TU-5 | 2026-08-31 00:50:14 | 43.19836 | 20.30455 | 93° | 29km/h | 16686m | -32.2m/s | -58.8°C | 0.0% | 0hPa | 0V | 00:00:00 | 00:00:00 | 00:00:00 | |
| LZ4TU-5 | 2026-08-31 00:48:17 | 43.19750 | 20.30099 | 357° | 15km/h | 21110m | -44.5m/s | -55.5°C | 0.0% | 0hPa | 0V | 00:00:00 | 00:00:00 | 00:00:00 | |
| LZ4TU-5 | 2026-08-31 00:48:13 | 43.19737 | 20.30101 | 345° | 15km/h | 21291m | -45.4m/s | -55.4°C | 0.0% | 0hPa | 0V | 00:00:00 | 00:00:00 | 00:00:00 | |
| LZ4TU-5 | 2026-08-31 00:48:06 | 43.19712 | 20.30092 | 56° | 11km/h | 21612m | -46.1m/s | -55.3°C | 0.0% | 0hPa | 0V | 00:00:00 | 00:00:00 | 00:00:00 | |
| LZ4TU-5 | 2026-08-31 00:47:49 | 43.19717 | 20.30122 | 222° | 9km/h | 22434m | -50.6m/s | -54.6°C | 0.0% | 0hPa | 0V | 00:00:00 | 00:00:00 | 00:00:00 | |
| LZ4TU-5 | 2026-08-31 00:47:45 | 43.19726 | 20.30131 | 240° | 13km/h | 22638m | -53.2m/s | -55.2°C | 0.0% | 0hPa | 0V | 00:00:00 | 00:00:00 | 00:00:00 | |
| LZ4TU-5 | 2026-08-31 00:47:39 | 43.19727 | 20.30157 | 297° | 11km/h | 22966m | -53.4m/s | -54.4°C | 0.0% | 0hPa | 0V | 00:00:00 | 00:00:00 | 00:00:00 | |
| LZ4TU-5 | 2026-08-31 00:47:32 | 43.19722 | 20.30174 | 281° | 9km/h | 23345m | -55.3m/s | -54.3°C | 0.0% | 0hPa | 0V | 00:00:00 | 00:00:00 | 00:00:00 | |
| LZ4TU-5 | 2026-08-31 00:47:15 | 43.19685 | 20.30203 | 319° | 4km/h | 24329m | -59.2m/s | -52.9°C | 0.0% | 0hPa | 0V | 00:00:00 | 00:00:00 | 00:00:00 | |
| LZ4TU-5 | 2026-08-31 00:44:29 | 43.19344 | 20.30432 | 315° | 40km/h | 32045m | 5.3m/s | -42.5°C | 0.0% | 0hPa | 0V | 00:00:00 | 00:00:00 | 00:00:00 | |
| LZ4TU-5 | 2026-08-31 00:44:24 | 43.19309 | 20.30437 | 74° | 15km/h | 32010m | 7.5m/s | -42.3°C | 0.0% | 0hPa | 0V | 00:00:00 | 00:00:00 | 00:00:00 | |
| LZ4TU-5 | 2026-08-31 00:41:25 | 43.18965 | 20.30181 | 195° | 11km/h | 30716m | 6.6m/s | -43.8°C | 0.0% | 0hPa | 0V | 00:00:00 | 00:00:00 | 00:00:00 | |
| LZ4TU-5 | 2026-08-31 00:41:20 | 43.18945 | 20.30187 | 10° | 35km/h | 30681m | 6.9m/s | -43.8°C | 0.0% | 0hPa | 0V | 00:00:00 | 00:00:00 | 00:00:00 | |
| LZ4TU-5 | 2026-08-31 00:39:35 | 43.18763 | 20.30414 | 353° | 35km/h | 29978m | 5.5m/s | -45.9°C | 0.0% | 0hPa | 0V | 00:00:00 | 00:00:00 | 00:00:00 | |
| LZ4TU-5 | 2026-08-31 00:39:29 | 43.18736 | 20.30437 | 347° | 11km/h | 29946m | 7.5m/s | -46.1°C | 0.0% | 0hPa | 0V | 00:00:00 | 00:00:00 | 00:00:00 | |
| LZ4TU-5 | 2026-08-31 00:37:46 | 43.18414 | 20.30782 | 252° | 18km/h | 29190m | 8.0m/s | -43.4°C | 0.0% | 0hPa | 0V | 00:00:00 | 00:00:00 | 00:00:00 | |
| LZ4TU-5 | 2026-08-31 00:37:41 | 43.18397 | 20.30815 | 359° | 15km/h | 29153m | 8.8m/s | -43.6°C | 0.0% | 0hPa | 0V | 00:00:00 | 00:00:00 | 00:00:00 | |
| LZ4TU-5 | 2026-08-31 00:35:41 | 43.18021 | 20.30789 | 304° | 35km/h | 28325m | 6.9m/s | -46.2°C | 0.0% | 0hPa | 0V | 00:00:00 | 00:00:00 | 00:00:00 | |
| LZ4TU-5 | 2026-08-31 00:35:36 | 43.17996 | 20.30814 | 350° | 13km/h | 28296m | 6.0m/s | -46.2°C | 0.0% | 0hPa | 0V | 00:00:00 | 00:00:00 | 00:00:00 | |
| LZ4TU-5 | 2026-08-31 00:35:31 | 43.17988 | 20.30841 | 297° | 15km/h | 28266m | 6.2m/s | -46.4°C | 0.0% | 0hPa | 0V | 00:00:00 | 00:00:00 | 00:00:00 | |
| LZ4TU-5 | 2026-08-31 00:33:53 | 43.17920 | 20.31118 | 288° | 11km/h | 27607m | 6.0m/s | -48.2°C | 0.0% | 0hPa | 0V | 00:00:00 | 00:00:00 | 00:00:00 | |
| LZ4TU-5 | 2026-08-31 00:33:48 | 43.17917 | 20.31130 | 188° | 7km/h | 27578m | 8.6m/s | -48.4°C | 0.0% | 0hPa | 0V | 00:00:00 | 00:00:00 | 00:00:00 | |
| LZ4TU-5 | 2026-08-31 00:32:00 | 43.18043 | 20.31120 | 166° | 16km/h | 26820m | 7.1m/s | -48.3°C | 0.0% | 0hPa | 0V | 00:00:00 | 00:00:00 | 00:00:00 | |
| LZ4TU-5 | 2026-08-31 00:31:55 | 43.18060 | 20.31114 | 174° | 13km/h | 26787m | 6.3m/s | -48.3°C | 0.0% | 0hPa | 0V | 00:00:00 | 00:00:00 | 00:00:00 | |
| LZ4TU-5 | 2026-08-31 00:30:19 | 43.18292 | 20.31133 | 112° | 15km/h | 26178m | 6.5m/s | -50.5°C | 0.0% | 0hPa | 0V | 00:00:00 | 00:00:00 | 00:00:00 | |
| LZ4TU-5 | 2026-08-31 00:30:14 | 43.18296 | 20.31104 | 144° | 9km/h | 26148m | 4.9m/s | -50.5°C | 0.0% | 0hPa | 0V | 00:00:00 | 00:00:00 | 00:00:00 | |
| LZ4TU-5 | 2026-08-31 00:28:42 | 43.18468 | 20.31100 | 0° | 0km/h | 25554m | 5.0m/s | -50.9°C | 0.0% | 0hPa | 0V | 00:00:00 | 00:00:00 | 00:00:00 | |
| LZ4TU-5 | 2026-08-31 00:28:37 | 43.18444 | 20.31100 | 305° | 11km/h | 25525m | 8.7m/s | -50.9°C | 0.0% | 0hPa | 0V | 00:00:00 | 00:00:00 | 00:00:00 | |
| LZ4TU-5 | 2026-08-31 00:26:59 | 43.18284 | 20.31263 | 207° | 11km/h | 24886m | 6.3m/s | -53.3°C | 0.0% | 0hPa | 0V | 00:00:00 | 00:00:00 | 00:00:00 | |
| LZ4TU-5 | 2026-08-31 00:26:54 | 43.18275 | 20.31310 | 287° | 26km/h | 24852m | 5.6m/s | -53.1°C | 0.0% | 0hPa | 0V | 00:00:00 | 00:00:00 | 00:00:00 | |
| LZ4TU-5 | 2026-08-31 00:25:17 | 43.18174 | 20.31518 | 296° | 13km/h | 24243m | 6.2m/s | -54.8°C | 0.0% | 0hPa | 0V | 00:00:00 | 00:00:00 | 00:00:00 | |
| LZ4TU-5 | 2026-08-31 00:25:12 | 43.18171 | 20.31489 | 111° | 27km/h | 24210m | 4.0m/s | -55.2°C | 0.0% | 0hPa | 0V | 00:00:00 | 00:00:00 | 00:00:00 | |
| LZ4TU-5 | 2026-08-31 00:25:07 | 43.18169 | 20.31492 | 271° | 22km/h | 24177m | 6.2m/s | -55.4°C | 0.0% | 0hPa | 0V | 00:00:00 | 00:00:00 | 00:00:00 | |
| LZ4TU-5 | 2026-08-31 00:23:36 | 43.17946 | 20.31748 | 218° | 26km/h | 23611m | 5.0m/s | -54.8°C | 0.0% | 0hPa | 0V | 00:00:00 | 00:00:00 | 00:00:00 | |
| LZ4TU-5 | 2026-08-31 00:23:32 | 43.17953 | 20.31760 | 322° | 4km/h | 23586m | 6.9m/s | -54.8°C | 0.0% | 0hPa | 0V | 00:00:00 | 00:00:00 | 00:00:00 | |
| LZ4TU-5 | 2026-08-31 00:21:55 | 43.17868 | 20.32106 | 344° | 16km/h | 22985m | 5.6m/s | -55.4°C | 0.0% | 0hPa | 0V | 00:00:00 | 00:00:00 | 00:00:00 | |
| LZ4TU-5 | 2026-08-31 00:21:51 | 43.17860 | 20.32118 | 271° | 7km/h | 22961m | 6.1m/s | -55.5°C | 0.0% | 0hPa | 0V | 00:00:00 | 00:00:00 | 00:00:00 | |
| LZ4TU-5 | 2026-08-31 00:20:15 | 43.17952 | 20.32359 | 291° | 5km/h | 22383m | 5.7m/s | -55.8°C | 0.0% | 0hPa | 0V | 00:00:00 | 00:00:00 | 00:00:00 | |
| LZ4TU-5 | 2026-08-31 00:20:10 | 43.17945 | 20.32382 | 345° | 11km/h | 22353m | 5.8m/s | -55.8°C | 0.0% | 0hPa | 0V | 00:00:00 | 00:00:00 | 00:00:00 | |
| LZ4TU-5 | 2026-08-31 00:18:36 | 43.17958 | 20.32561 | 109° | 9km/h | 21796m | 7.3m/s | -55.0°C | 0.2% | 0hPa | 0V | 00:00:00 | 00:00:00 | 00:00:00 | |
| LZ4TU-5 | 2026-08-31 00:18:30 | 43.17955 | 20.32556 | 29° | 7km/h | 21767m | 6.8m/s | -55.1°C | 0.2% | 0hPa | 0V | 00:00:00 | 00:00:00 | 00:00:00 | |
| LZ4TU-5 | 2026-08-31 00:16:47 | 43.17589 | 20.32388 | 17° | 31km/h | 21158m | 5.8m/s | -56.2°C | 0.3% | 0hPa | 0V | 00:00:00 | 00:00:00 | 00:00:00 | |
| LZ4TU-5 | 2026-08-31 00:16:42 | 43.17554 | 20.32392 | 351° | 15km/h | 21129m | 6.7m/s | -56.3°C | 0.4% | 0hPa | 0V | 00:00:00 | 00:00:00 | 00:00:00 | |
| LZ4TU-5 | 2026-08-31 00:15:08 | 43.17268 | 20.32416 | 259° | 13km/h | 20588m | 5.0m/s | -57.6°C | 0.5% | 0hPa | 0V | 00:00:00 | 00:00:00 | 00:00:00 | |
| LZ4TU-5 | 2026-08-31 00:15:05 | 43.17267 | 20.32434 | 324° | 13km/h | 20565m | 6.7m/s | -57.5°C | 0.5% | 0hPa | 0V | 00:00:00 | 00:00:00 | 00:00:00 | |
| LZ4TU-5 | 2026-08-31 00:13:37 | 43.17100 | 20.32462 | 1° | 11km/h | 20088m | 5.9m/s | -58.0°C | 0.8% | 0hPa | 0V | 00:00:00 | 00:00:00 | 00:00:00 | |
| LZ4TU-5 | 2026-08-31 00:13:32 | 43.17089 | 20.32468 | 326° | 5km/h | 20061m | 4.7m/s | -57.9°C | 0.9% | 0hPa | 0V | 00:00:00 | 00:00:00 | 00:00:00 | |
| LZ4TU-5 | 2026-08-31 00:12:03 | 43.17014 | 20.32577 | 28° | 11km/h | 19560m | 5.8m/s | -57.5°C | 1.1% | 0hPa | 0V | 00:00:00 | 00:00:00 | 00:00:00 | |
| LZ4TU-5 | 2026-08-31 00:11:58 | 43.17010 | 20.32574 | 192° | 5km/h | 19535m | 5.6m/s | -57.5°C | 1.1% | 0hPa | 0V | 00:00:00 | 00:00:00 | 00:00:00 | |
| LZ4TU-5 | 2026-08-31 00:10:22 | 43.16948 | 20.32534 | 50° | 15km/h | 19019m | 6.0m/s | -58.2°C | 1.4% | 0hPa | 0V | 00:00:00 | 00:00:00 | 00:00:00 | |
| LZ4TU-5 | 2026-08-31 00:10:17 | 43.16932 | 20.32499 | 45° | 18km/h | 18994m | 5.5m/s | -58.4°C | 1.5% | 0hPa | 0V | 00:00:00 | 00:00:00 | 00:00:00 | |
| LZ4TU-5 | 2026-08-31 00:08:18 | 43.16995 | 20.31869 | 138° | 20km/h | 18332m | 4.6m/s | -58.2°C | 1.8% | 0hPa | 0V | 00:00:00 | 00:00:00 | 00:00:00 | |
| LZ4TU-5 | 2026-08-31 00:08:14 | 43.17002 | 20.31849 | 83° | 13km/h | 18310m | 5.8m/s | -58.2°C | 1.8% | 0hPa | 0V | 00:00:00 | 00:00:00 | 00:00:00 | |
| LZ4TU-5 | 2026-08-31 00:06:02 | 43.16999 | 20.31702 | 89° | 4km/h | 17615m | 5.2m/s | -58.2°C | 2.6% | 0hPa | 0V | 00:00:00 | 00:00:00 | 00:00:00 | |
| LZ4TU-5 | 2026-08-31 00:05:57 | 43.17006 | 20.31689 | 143° | 7km/h | 17588m | 4.8m/s | -58.2°C | 2.6% | 0hPa | 0V | 00:00:00 | 00:00:00 | 00:00:00 | |
| LZ4TU-5 | 2026-08-31 00:04:17 | 43.17183 | 20.31108 | 102° | 31km/h | 17078m | 5.7m/s | -58.4°C | 3.8% | 0hPa | 0V | 00:00:00 | 00:00:00 | 00:00:00 | |
| LZ4TU-5 | 2026-08-31 00:04:12 | 43.17188 | 20.31050 | 102° | 33km/h | 17051m | 5.7m/s | -58.3°C | 0% | 0hPa | 0V | 00:00:00 | 00:00:00 | 00:00:00 | |
| LZ4TU-5 | 2026-08-31 00:01:03 | 43.17051 | 20.29230 | 117° | 15km/h | 16043m | 5.8m/s | -60.1°C | 6.9% | 0hPa | 0V | 00:00:00 | 00:00:00 | 00:00:00 | |
| LZ4TU-5 | 2026-08-31 00:00:55 | 43.17065 | 20.29203 | 119° | 31km/h | 16016m | 6.1m/s | -60.3°C | 7.0% | 0hPa | 0V | 00:00:00 | 00:00:00 | 00:00:00 | |
| LZ4TU-5 | 2026-08-30 23:59:19 | 43.17738 | 20.28092 | 120° | 71km/h | 15508m | 5.2m/s | -61.7°C | 9.8% | 0hPa | 0V | 00:00:00 | 00:00:00 | 00:00:00 | |
| LZ4TU-5 | 2026-08-30 23:59:15 | 43.17775 | 20.28010 | 119° | 64km/h | 15488m | 4.9m/s | -61.7°C | 9.9% | 0hPa | 0V | 00:00:00 | 00:00:00 | 00:00:00 | |
| LZ4TU-5 | 2026-08-30 23:57:50 | 43.18103 | 20.26154 | 90° | 60km/h | 15042m | 6.3m/s | -61.8°C | 11.6% | 0hPa | 0V | 00:00:00 | 00:00:00 | 00:00:00 | |
| LZ4TU-5 | 2026-08-30 23:57:45 | 43.18118 | 20.26060 | 87° | 62km/h | 15010m | 6.4m/s | -61.8°C | 11.8% | 0hPa | 0V | 00:00:00 | 00:00:00 | 00:00:00 | |
| LZ4TU-5 | 2026-08-30 23:56:12 | 43.17993 | 20.24850 | 120° | 35km/h | 14430m | 6.4m/s | -59.4°C | 14.1% | 0hPa | 0V | 00:00:00 | 00:00:00 | 00:00:00 | |
| LZ4TU-5 | 2026-08-30 23:56:08 | 43.18008 | 20.24803 | 104° | 35km/h | 14405m | 5.5m/s | -59.4°C | 14.2% | 0hPa | 0V | 00:00:00 | 00:00:00 | 00:00:00 | |
| LZ4TU-5 | 2026-08-30 23:54:37 | 43.18406 | 20.23649 | 125° | 57km/h | 13860m | 5.4m/s | -59.1°C | 18.1% | 0hPa | 0V | 00:00:00 | 00:00:00 | 00:00:00 | |
| LZ4TU-5 | 2026-08-30 23:54:33 | 43.18433 | 20.23574 | 110° | 62km/h | 13836m | 5.3m/s | -58.9°C | 18.2% | 0hPa | 0V | 00:00:00 | 00:00:00 | 00:00:00 | |
| LZ4TU-5 | 2026-08-30 23:52:53 | 43.18842 | 20.21758 | 104° | 53km/h | 13301m | 5.1m/s | -58.5°C | 23.4% | 0hPa | 0V | 00:00:00 | 00:00:00 | 00:00:00 | |
| LZ4TU-5 | 2026-08-30 23:52:48 | 43.18859 | 20.21673 | 100° | 55km/h | 13278m | 5.3m/s | -58.5°C | 23.7% | 0hPa | 0V | 00:00:00 | 00:00:00 | 00:00:00 | |
| LZ4TU-5 | 2026-08-30 23:51:08 | 43.19364 | 20.19926 | 128° | 66km/h | 12742m | 4.6m/s | -57.2°C | 35.0% | 0hPa | 0V | 00:00:00 | 00:00:00 | 00:00:00 | |
| LZ4TU-5 | 2026-08-30 23:51:03 | 43.19411 | 20.19844 | 118° | 62km/h | 12718m | 5.0m/s | -57.4°C | 35.9% | 0hPa | 0V | 00:00:00 | 00:00:00 | 00:00:00 | |
| LZ4TU-5 | 2026-08-30 23:49:24 | 43.20043 | 20.17886 | 103° | 68km/h | 12166m | 6.4m/s | -56.1°C | 46.4% | 0hPa | 0V | 00:00:00 | 00:00:00 | 00:00:00 | |
| LZ4TU-5 | 2026-08-30 23:49:19 | 43.20068 | 20.17786 | 125° | 58km/h | 12137m | 6.7m/s | -55.9°C | 0% | 0hPa | 0V | 00:00:00 | 00:00:00 | 00:00:00 | |
| LZ4TU-5 | 2026-08-30 23:47:38 | 43.20683 | 20.15849 | 111° | 44km/h | 11630m | 5.8m/s | -53.5°C | 38.6% | 0hPa | 0V | 00:00:00 | 00:00:00 | 00:00:00 | |
| LZ4TU-5 | 2026-08-30 23:47:33 | 43.20723 | 20.15763 | 120° | 55km/h | 11597m | 3.7m/s | -53.3°C | 38.6% | 0hPa | 0V | 00:00:00 | 00:00:00 | 00:00:00 | |
| LZ4TU-5 | 2026-08-30 23:45:50 | 43.21405 | 20.14698 | 152° | 42km/h | 11040m | 5.3m/s | -49.1°C | 34.2% | 0hPa | 0V | 00:00:00 | 00:00:00 | 00:00:00 | |
| LZ4TU-5 | 2026-08-30 23:45:45 | 43.21449 | 20.14656 | 122° | 35km/h | 11014m | 5.1m/s | -48.9°C | 33.9% | 0hPa | 0V | 00:00:00 | 00:00:00 | 00:00:00 | |
| LZ4TU-5 | 2026-08-30 23:45:40 | 43.21469 | 20.14610 | 138° | 38km/h | 10989m | 5.4m/s | -48.7°C | 33.7% | 0hPa | 0V | 00:00:00 | 00:00:00 | 00:00:00 | |
| LZ4TU-5 | 2026-08-30 23:43:39 | 43.22332 | 20.13546 | 137° | 47km/h | 10338m | 6.0m/s | -43.0°C | 25.2% | 0hPa | 0V | 00:00:00 | 00:00:00 | 00:00:00 | |
| LZ4TU-5 | 2026-08-30 23:43:34 | 43.22375 | 20.13497 | 147° | 40km/h | 10310m | 5.5m/s | -42.8°C | 25.2% | 0hPa | 0V | 00:00:00 | 00:00:00 | 00:00:00 | |
| LZ4TU-5 | 2026-08-30 23:42:00 | 43.23062 | 20.12473 | 150° | 37km/h | 9783m | 5.8m/s | -38.7°C | 20.0% | 0hPa | 0V | 00:00:00 | 00:00:00 | 00:00:00 | |
| LZ4TU-5 | 2026-08-30 23:41:56 | 43.23091 | 20.12439 | 126° | 38km/h | 9765m | 3.4m/s | -38.5°C | 19.3% | 0hPa | 0V | 00:00:00 | 00:00:00 | 00:00:00 | |
| LZ4TU-5 | 2026-08-30 23:41:51 | 43.23121 | 20.12382 | 137° | 35km/h | 9743m | 4.1m/s | -38.4°C | 19.2% | 0hPa | 0V | 00:00:00 | 00:00:00 | 00:00:00 |